North Valleys Regional Park, Lemmon Valley, Nevada Weather observations

Data are for 10 minute period ending at time listed.
 Day   Time   Solar   Ave.   Ave.  Ave.  Vector  Max.   Baro.   Total    
  of    of     Rad.   Air    Rel.  Wind   Wind   Wind  Press.  Precip.   
Year   Day            Temp.  Hum.  Speed  Dir.   Gust                    
2020   (PST)  Kw/m2    F      %     mph   deg.    mph    mb.     in.     
-------------------------------------------------------------------------
 152   12:50   0.99   70.2    28    5.5    47    10.0   99999.0    0.00 
 152   13:00   0.97   71.1    28    3.2    28    12.8   99999.0    0.00 
 152   13:10   0.82   70.9    27    4.2    34    10.5   99999.0    0.00 
 152   13:20   0.71   72.1    26    6.2   128    11.1   99999.0    0.00 
 152   13:30   0.59   71.1    26    3.1    98     7.2   99999.0    0.00 
 152   13:40   0.53   71.3    27    3.3    48     8.8   99999.0    0.00 
 152   13:50   0.75   71.9    26    4.9    37     8.3   99999.0    0.00 
 152   14:00   0.48   72.1    26    4.8   108    11.1   99999.0    0.01 
 152   14:10   0.63   72.6    26    3.7   140     7.7   99999.0    0.00 
 152   14:20   0.70   72.8    26    3.2   157    11.6   99999.0    0.00 
 152   14:30   0.86   74.3    25    3.2   124     8.3   99999.0    0.00 
 152   14:40   0.46   72.5    26    2.7   346     7.2   99999.0    0.00 
 152   14:50   0.63   72.9    26    2.1    21     6.6   99999.0    0.00 
 152   15:00   0.48   73.4    26    2.9    51     7.7   99999.0    0.00 
 152   15:10   0.33   73.5    26    1.4   320     7.2   99999.0    0.00 
 152   15:20   0.43   73.0    26    3.9   297     8.8   99999.0    0.00 
 152   15:30   0.35   72.3    27    5.5   275     8.8   99999.0    0.00 
 152   15:40   0.26   71.6    29    7.3   264    13.3   99999.0    0.00 
 152   15:50   0.23   70.9    30    6.9   259    12.8   99999.0    0.00 
 152   16:00   0.25   70.7    33    8.7   267    17.2   99999.0    0.00 
 152   16:10   0.21   69.4    39    9.2   275    16.7   99999.0    0.00 
 152   16:20   0.19   68.9    41    8.8   280    18.9   99999.0    0.00 
 152   16:30   0.17   68.1    42   12.4   270    20.6   99999.0    0.00 
 152   16:40   0.13   67.2    46   10.8   259    19.5   99999.0    0.00 
 152   16:50   0.15   66.7    47   10.0   261    17.2   99999.0    0.00 
 152   17:00   0.32   67.0    46   10.0   258    17.2   99999.0    0.00 
 152   17:10   0.39   67.9    43    9.6   256    16.1   99999.0    0.00 
 152   17:20   0.40   69.0    39   10.1   246    16.7   99999.0    0.00 
 152   17:30   0.16   68.3    39    9.6   254    16.7   99999.0    0.00 
 152   17:40   0.04   67.8    40    7.8   257    18.3   99999.0    0.00 
 152   17:50   0.02   67.1    41    8.3   269    13.3   99999.0    0.00 
 152   18:00   0.01   66.6    43    3.6   204    11.6   99999.0    0.00 
 152   18:10   0.01   65.0    50    7.9   196    17.2   99999.0    0.00 
 152   18:20   0.01   63.0    53   11.0   211    17.2   99999.0    0.00 
 152   18:30   0.01   62.3    57    8.9   222    15.0   99999.0    0.00 
 152   18:40   0.00   60.8    63    8.6   166    17.2   99999.0    0.00 
 152   18:50   0.00   59.7    59    8.5   138    14.4   99999.0    0.00 
 152   19:00   0.00   60.5    55    5.6   158    13.3   99999.0    0.00 
 152   19:10   0.00   59.9    64    0.6   128     6.0   99999.0    0.00 
 152   19:20   0.00   59.1    69    2.4    24     5.5   99999.0    0.00 
 152   19:30   0.00   58.5    71    3.3   355     7.2   99999.0    0.00 
 152   19:40   0.00   58.5    71    4.0    21     7.2   99999.0    0.00 
 152   19:50   0.00   58.2    73    1.5    25     6.0   99999.0    0.00 
 152   20:00   0.00   57.8    75    1.9    13     6.0   99999.0    0.00 
 152   20:10   0.00   57.3    76    1.9   346     6.6   99999.0    0.00 
 152   20:20   0.00   57.3    76    2.9     1     8.8   99999.0    0.00 
 152   20:30   0.00   57.2    74    2.6    11     6.6   99999.0    0.00 
 152   20:40   0.00   57.1    73    1.4     2     3.8   99999.0    0.00 
 152   20:50   0.00   57.3    71    1.5    17     4.4   99999.0    0.00 
 152   21:00   0.00   57.3    71    0.0   349     1.6   99999.0    0.00 
 152   21:10   0.00   57.4    69    0.0   354     1.6   99999.0    0.00 
 152   21:20   0.00   57.7    71    0.2   255     2.1   99999.0    0.00 
 152   21:30   0.00   57.3    72    0.2   340     2.1   99999.0    0.01 
 152   21:40   0.00   57.0    70    0.2   342     2.1   99999.0    0.00 
 152   21:50   0.00   56.9    72    0.0     0     0.0   99999.0    0.00 
 152   22:00   0.00   56.4    74    0.3    15     3.2   99999.0    0.00 
 152   22:10   0.00   56.0    75    0.0     0     0.0   99999.0    0.00 
 152   22:20   0.00   55.8    76    0.0     0     0.0   99999.0    0.00 
 152   22:30   0.00   55.6    78    0.0     0     0.0   99999.0    0.00 
 152   22:40   0.00   56.0    74    0.9   250     3.2   99999.0    0.00 
 152   22:50   0.00   56.8    69    1.1   244     6.0   99999.0    0.00 
 152   23:00   0.00   54.6    84    5.5   256    13.3   99999.0    0.00 
 152   23:10   0.00   52.8    92    6.4   250    11.1   99999.0    0.00 
 152   23:20   0.00   54.6    81    3.6   274     7.7   99999.0    0.00 
 152   23:30   0.00   55.7    70    5.9   255    12.2   99999.0    0.00 
 152   23:40   0.00   56.0    68    7.8   241    12.2   99999.0    0.00 
 152   23:50   0.00   55.9    68    6.9   245    11.1   99999.0    0.00 
 153    0:00   0.00   54.4    78    6.9   246    11.6   99999.0    0.00 
 153    0:10   0.00   52.3    93    6.6   237    14.4   99999.0    0.00 
 153    0:20   0.00   53.3    91    4.5   254     7.2   99999.0    0.00 
 153    0:30   0.00   54.4    78    1.9   244     6.0   99999.0    0.00 
 153    0:40   0.00   54.8    74    2.8   238    13.3   99999.0    0.00 
 153    0:50   0.00   51.7    93    3.2   246    13.3   99999.0    0.00 
 153    1:00   0.00   51.3    94    0.8   256     3.8   99999.0    0.00 
 153    1:10   0.00   52.1    94    0.2   218     2.7   99999.0    0.00 
 153    1:20   0.00   53.3    86    3.3   249     8.8   99999.0    0.00 
 153    1:30   0.00   55.0    69    4.6   264     8.3   99999.0    0.00 
 153    1:40   0.00   55.3    66    3.0   270     7.7   99999.0    0.00 
 153    1:50   0.00   55.4    66    2.0   290     6.0   99999.0    0.00 
 153    2:00   0.00   55.5    63    2.4   295    12.2   99999.0    0.00 
 153    2:10   0.00   55.9    59    2.0   286     7.7   99999.0    0.00 
 153    2:20   0.00   56.2    56    1.8   281     7.7   99999.0    0.00 
 153    2:30   0.00   56.4    55    3.5   285    10.5   99999.0    0.00 
 153    2:40   0.00   56.4    55    4.8   294    11.6   99999.0    0.00 
 153    2:50   0.00   55.9    57    2.1   311     8.8   99999.0    0.00 
 153    3:00   0.00   55.6    58    2.1   322     6.0   99999.0    0.00 
 153    3:10   0.00   55.7    56    3.9   291    10.0   99999.0    0.00 
 153    3:20   0.00   55.9    55    1.2   296     6.0   99999.0    0.00 
 153    3:30   0.00   55.6    56    0.9   285     4.4   99999.0    0.00 
 153    3:40   0.00   55.1    57    1.0   290     4.4   99999.0    0.00 
 153    3:50   0.00   55.8    54    5.1   283     9.4   99999.0    0.00 
 153    4:00   0.00   56.3    53    6.0   281    11.6   99999.0    0.00 
 153    4:10   0.00   56.4    52    7.9   268    12.8   99999.0    0.00 
 153    4:20   0.00   56.2    52    5.3   276    11.6   99999.0    0.00 
 153    4:30   0.00   55.8    57    4.3   293    10.0   99999.0    0.00 
 153    4:40   0.00   55.5    59    3.6   340     8.8   99999.0    0.00 
 153    4:50   0.01   55.1    59    2.3   338     7.7   99999.0    0.00 
 153    5:00   0.02   55.1    58    1.0   327     6.0   99999.0    0.00 
 153    5:10   0.04   55.6    56    4.1   280     9.4   99999.0    0.00 
 153    5:20   0.04   56.0    54    2.6   281     7.7   99999.0    0.00 
 153    5:30   0.05   56.1    54    5.9   262    11.1   99999.0    0.00 
 153    5:40   0.06   56.1    54    6.0   250     9.4   99999.0    0.00 
 153    5:50   0.07   56.3    53    4.4   264    11.6   99999.0    0.00 
 153    6:00   0.08   56.7    52    5.5   276    11.6   99999.0    0.00 
 153    6:10   0.06   56.8    52    5.5   278     9.4   99999.0    0.01 
 153    6:20   0.06   56.7    52    5.7   268    10.0   99999.0    0.00 
 153    6:30   0.06   56.8    52    6.5   262    10.0   99999.0    0.00 
 153    6:40   0.08   56.6    54    4.5   258     8.8   99999.0    0.00 
 153    6:50   0.10   56.7    55    3.8   266     7.2   99999.0    0.00 
 153    7:00   0.12   56.9    55    3.8   273     7.7   99999.0    0.00 
 153    7:10   0.15   57.1    54    6.0   265    11.1   99999.0    0.00 
 153    7:20   0.21   57.5    53    6.3   265    10.5   99999.0    0.00 
 153    7:30   0.22   58.0    52    6.5   267    10.0   99999.0    0.00 
 153    7:40   0.25   58.4    49    6.0   263    10.5   99999.0    0.00 
 153    7:50   0.38   59.2    48    5.0   275    11.1   99999.0    0.00 
 153    8:00   0.40   59.8    47    2.7   279     8.8   99999.0    0.00 
 153    8:10   0.53   60.2    46    4.7   291     8.8   99999.0    0.00 
 153    8:20   0.74   62.5    44    4.0   312     7.7   99999.0    0.00 
 153    8:30   0.81   62.9    44    3.9   275     8.8   99999.0    0.00 
 153    8:40   0.75   63.2    42    2.5   284     8.3   99999.0    0.00 
 153    8:50   0.54   63.8    42    3.3   327     8.8   99999.0    0.00 
 153    9:00   0.78   63.6    42    2.6   305     7.2   99999.0    0.00 
 153    9:10   0.91   65.4    41    1.8   292     7.2   99999.0    0.00 
 153    9:20   0.89   65.1    40    3.6   247    10.0   99999.0    0.00 
 153    9:30   0.79   64.1    41    4.1   248    12.2   99999.0    0.00 
 153    9:40   0.86   64.7    41    4.3   247    10.5   99999.0    0.00 
 153    9:50   0.89   64.0    41    3.3   262    10.0   99999.0    0.00 
 153   10:00   0.76   64.6    42    5.2   260     9.4   99999.0    0.00 
 153   10:10   0.91   65.6    40    1.6   254     5.5   99999.0    0.00 
 153   10:20   0.86   68.1    37    1.9   156     7.2   99999.0    0.00 
 153   10:30   0.65   68.1    37    2.7   222    13.3   99999.0    0.00 
 153   10:40   0.66   66.0    39    4.4   287    11.6   99999.0    0.01 
 153   10:50   0.66   67.6    37    3.4    55     8.8   99999.0    0.00 
 153   11:00   0.45   67.1    37    4.4    76    10.0   99999.0    0.00 
 153   11:10   0.39   66.9    37    3.6    33     8.8   99999.0    0.00 
 153   11:20   0.38   66.9    36    5.9    15    11.6   99999.0    0.00 
 153   11:30   0.44   67.0    37    0.9    85     4.9   99999.0    0.00 
 153   11:40   0.50   67.3    36    4.3    12     9.4   99999.0    0.00 
 153   11:50   0.55   67.4    36    2.0    55     5.5   99999.0    0.00 
 153   12:00   0.50   68.4    36    3.6     0     7.7   99999.0    0.00 
 153   12:10   0.40   68.2    36    1.1    39     7.2   99999.0    0.00 
 153   12:20   0.34   67.7    37    2.0   292     7.2   99999.0    0.00 
 153   12:30   0.32   67.6    36    5.4   336    10.0   99999.0    0.00 
 153   12:40   0.26   67.2    36    4.0   347    10.5   99999.0    0.00 

Return to North Valleys Regional Park graphs page.


Western Regional Climate Center,wrcc@dri.edu